createdAt,value
2018-09-18T00:01:45.037Z,3.30
2018-09-18T00:04:12.804Z,3.20
2018-09-18T00:06:40.396Z,3.05
2018-09-18T00:09:09.420Z,3.10
2018-09-18T00:11:37.632Z,3.23
2018-09-18T00:14:05.704Z,3.00
2018-09-18T00:16:33.177Z,3.10
2018-09-18T00:19:00.956Z,3.22
2018-09-18T00:21:29.000Z,3.20
2018-09-18T00:23:57.073Z,3.10
2018-09-18T00:26:25.145Z,3.10
2018-09-18T00:28:53.011Z,3.20
2018-09-18T00:31:20.494Z,3.30
2018-09-18T00:33:48.435Z,3.00
2018-09-18T00:36:16.431Z,2.92
2018-09-18T00:38:44.196Z,2.90
2018-09-18T00:41:11.968Z,3.20
2018-09-18T00:43:40.061Z,2.95
2018-09-18T00:46:07.770Z,2.90
2018-09-18T00:48:35.844Z,3.10
2018-09-18T00:51:03.372Z,3.20
2018-09-18T00:53:30.839Z,2.90
2018-09-18T00:55:58.832Z,3.00
2018-09-18T00:58:26.313Z,3.08
2018-09-18T01:00:54.051Z,3.20
2018-09-18T01:03:21.873Z,3.10
2018-09-18T01:05:49.329Z,3.50
2018-09-18T01:08:16.812Z,3.60
2018-09-18T01:10:44.592Z,3.10
2018-09-18T01:13:12.355Z,3.10
2018-09-18T01:15:40.525Z,3.10
2018-09-18T01:18:07.979Z,3.25
2018-09-18T01:20:35.816Z,3.40
2018-09-18T01:23:03.653Z,3.55
2018-09-18T01:25:31.172Z,3.20
2018-09-18T01:27:58.852Z,3.43
2018-09-18T01:30:26.932Z,3.40
2018-09-18T01:32:55.059Z,3.30
2018-09-18T01:35:22.851Z,3.00
2018-09-18T01:37:50.397Z,3.40
2018-09-18T01:40:18.196Z,3.70
2018-09-18T01:42:46.099Z,3.40
2018-09-18T01:45:13.583Z,3.33
2018-09-18T01:47:41.071Z,3.60
2018-09-18T01:50:08.878Z,3.37
2018-09-18T01:52:36.380Z,3.30
2018-09-18T01:55:03.874Z,3.60
2018-09-18T01:57:32.341Z,3.85
2018-09-18T01:59:59.897Z,3.60
2018-09-18T02:02:27.349Z,3.50
2018-09-18T02:04:54.840Z,3.65
2018-09-18T02:07:22.328Z,3.50
2018-09-18T02:09:50.349Z,3.52
2018-09-18T02:12:17.824Z,3.67
2018-09-18T02:14:45.592Z,3.58
2018-09-18T02:17:13.201Z,3.08
2018-09-18T02:19:41.319Z,3.52
2018-09-18T02:22:08.767Z,3.52
2018-09-18T02:24:36.858Z,3.50
2018-09-18T02:27:04.311Z,3.37
2018-09-18T02:29:32.355Z,3.55
2018-09-18T02:31:59.870Z,3.17
2018-09-18T02:34:27.582Z,3.20
2018-09-18T02:36:55.380Z,3.30
2018-09-18T02:39:23.099Z,3.30
2018-09-18T02:41:50.880Z,3.40
2018-09-18T02:44:18.371Z,3.60
2018-09-18T02:46:45.908Z,3.25
2018-09-18T02:49:13.729Z,3.40
2018-09-18T02:51:41.561Z,3.10
2018-09-18T02:54:09.429Z,3.00
2018-09-18T02:56:36.863Z,3.40
2018-09-18T02:59:04.619Z,3.27
2018-09-18T03:01:32.095Z,3.50
2018-09-18T03:03:59.563Z,3.40
2018-09-18T03:06:27.052Z,3.40
2018-09-18T03:08:54.859Z,3.00
2018-09-18T03:11:22.394Z,3.42
2018-09-18T03:13:50.461Z,3.33
2018-09-18T03:16:18.261Z,3.20
2018-09-18T03:18:45.715Z,4.05
2018-09-18T03:21:13.825Z,4.30
2018-09-18T03:23:41.317Z,5.67
2018-09-18T03:26:09.834Z,4.00
2018-09-18T03:28:37.628Z,4.95
2018-09-18T03:31:05.104Z,5.83
2018-09-18T03:33:33.125Z,4.50
2018-09-18T03:36:00.624Z,4.33
2018-09-18T03:38:28.423Z,4.40
2018-09-18T03:40:56.225Z,3.85
2018-09-18T03:43:24.000Z,4.23
2018-09-18T03:45:51.457Z,3.87
2018-09-18T03:48:19.168Z,4.10
2018-09-18T03:50:46.888Z,4.00
2018-09-18T03:53:14.628Z,4.10
2018-09-18T03:55:42.387Z,3.90
2018-09-18T03:58:09.897Z,4.03
2018-09-18T04:00:37.377Z,3.92
2018-09-18T04:03:05.173Z,4.10
2018-09-18T04:05:32.935Z,3.87
2018-09-18T04:08:00.632Z,4.08
2018-09-18T04:10:28.164Z,4.05
2018-09-18T04:12:55.708Z,3.77
2018-09-18T04:15:23.251Z,3.90
2018-09-18T04:17:51.166Z,3.80
2018-09-18T04:20:19.220Z,4.10
2018-09-18T04:22:46.747Z,3.80
2018-09-18T04:25:15.126Z,3.90
2018-09-18T04:27:42.923Z,3.60
2018-09-18T04:30:11.000Z,3.53
2018-09-18T04:32:38.843Z,4.10
2018-09-18T04:35:06.943Z,3.80
2018-09-18T04:37:34.474Z,3.72
2018-09-18T04:40:02.567Z,4.00
2018-09-18T04:42:30.092Z,4.10
2018-09-18T04:44:57.605Z,4.25
2018-09-18T04:47:25.451Z,4.20
2018-09-18T04:49:53.429Z,4.40
2018-09-18T04:52:21.193Z,4.40
2018-09-18T04:54:49.279Z,4.40
2018-09-18T04:57:17.126Z,4.70
2018-09-18T04:59:45.201Z,4.33
2018-09-18T05:02:13.003Z,4.28
2018-09-18T05:04:40.727Z,4.20
2018-09-18T05:07:08.188Z,4.10
2018-09-18T05:09:35.673Z,4.20
2018-09-18T05:12:03.417Z,4.33
2018-09-18T05:14:30.860Z,4.12
2018-09-18T05:16:58.313Z,4.12
2018-09-18T05:19:26.095Z,3.63
2018-09-18T05:21:53.891Z,4.00
2018-09-18T05:24:21.355Z,4.10
2018-09-18T05:26:49.489Z,4.10
2018-09-18T05:29:17.263Z,4.40
2018-09-18T05:31:45.020Z,4.17
2018-09-18T05:34:12.521Z,4.20
2018-09-18T05:36:39.975Z,4.00
2018-09-18T05:39:08.076Z,4.30
2018-09-18T05:41:35.897Z,4.40
2018-09-18T05:44:03.676Z,4.00
2018-09-18T05:46:31.401Z,4.30
2018-09-18T05:48:59.168Z,4.40
2018-09-18T05:51:26.623Z,4.00
2018-09-18T05:53:54.104Z,3.98
2018-09-18T05:56:21.885Z,4.00
2018-09-18T05:58:49.693Z,4.35
2018-09-18T06:01:17.189Z,4.20
2018-09-18T06:03:45.325Z,4.50
2018-09-18T06:06:13.044Z,4.12
2018-09-18T06:08:40.521Z,4.30
2018-09-18T06:11:08.332Z,4.10
2018-09-18T06:13:36.092Z,4.50
2018-09-18T06:16:03.867Z,4.30
2018-09-18T06:18:31.734Z,4.80
2018-09-18T06:20:59.499Z,4.30
2018-09-18T06:23:27.576Z,4.42
2018-09-18T06:25:55.385Z,4.90
2018-09-18T06:28:23.100Z,4.60
2018-09-18T06:30:50.677Z,4.50
2018-09-18T06:33:18.423Z,4.50
2018-09-18T06:35:45.936Z,4.50
2018-09-18T06:38:13.482Z,4.80
2018-09-18T06:40:41.003Z,4.37
2018-09-18T06:43:08.483Z,4.70
2018-09-18T06:45:36.534Z,4.30
2018-09-18T06:48:04.342Z,4.20
2018-09-18T06:50:32.419Z,4.60
2018-09-18T06:53:00.128Z,4.40
2018-09-18T06:55:27.920Z,4.92
2018-09-18T06:57:56.108Z,4.42
2018-09-18T07:00:23.596Z,4.53
2018-09-18T07:02:51.615Z,4.67
2018-09-18T07:05:19.705Z,4.45
2018-09-18T07:12:40.565Z,4.20
2018-09-18T07:15:08.053Z,4.20
2018-09-18T07:17:35.716Z,4.60
2018-09-18T07:20:03.548Z,4.60
2018-09-18T07:22:31.374Z,4.80
2018-09-18T07:24:59.478Z,4.40
2018-09-18T07:27:27.097Z,4.28
2018-09-18T07:29:55.009Z,4.50
2018-09-18T07:32:22.942Z,4.20
2018-09-18T07:34:50.408Z,4.78
2018-09-18T07:37:18.161Z,4.90
2018-09-18T07:39:45.980Z,4.53
2018-09-18T07:42:13.443Z,4.60
2018-09-18T07:44:40.888Z,4.50
2018-09-18T07:47:08.868Z,4.50
2018-09-18T07:49:36.313Z,5.10
2018-09-18T07:52:03.815Z,4.97
2018-09-18T07:54:31.291Z,5.20
2018-09-18T07:56:58.788Z,5.30
2018-09-18T07:59:26.271Z,5.05
2018-09-18T08:01:53.715Z,4.95
2018-09-18T08:04:21.361Z,5.17
2018-09-18T08:06:48.900Z,5.35
2018-09-18T08:09:16.607Z,5.12
2018-09-18T08:11:44.529Z,4.80
2018-09-18T08:14:12.046Z,4.97
2018-09-18T08:16:39.812Z,4.70
2018-09-18T08:19:07.248Z,5.35
2018-09-18T08:21:35.118Z,5.40
2018-09-18T08:24:02.709Z,4.90
2018-09-18T08:26:30.625Z,4.30
2018-09-18T08:28:58.422Z,4.20
2018-09-18T08:31:26.104Z,4.30
2018-09-18T08:33:53.753Z,4.40
2018-09-18T08:36:21.420Z,4.50
2018-09-18T08:38:50.384Z,4.47
2018-09-18T08:41:18.327Z,4.33
2018-09-18T08:43:46.087Z,4.60
2018-09-18T08:46:13.809Z,4.17
2018-09-18T08:48:46.517Z,3.40
2018-09-18T08:51:14.396Z,3.50
2018-09-18T08:53:42.064Z,3.20
2018-09-18T08:56:09.748Z,3.30
2018-09-18T08:58:37.638Z,3.20
2018-09-18T09:01:05.393Z,2.90
2018-09-18T09:03:32.937Z,3.30
2018-09-18T09:06:00.496Z,3.00
2018-09-18T09:08:28.265Z,3.40
2018-09-18T09:10:55.742Z,3.20
2018-09-18T09:13:23.408Z,3.00
2018-09-18T09:15:51.148Z,3.00
2018-09-18T09:18:18.706Z,2.70
2018-09-18T09:20:46.172Z,2.70
2018-09-18T09:23:13.961Z,2.90
2018-09-18T09:25:41.746Z,3.40
2018-09-18T09:28:09.260Z,3.00
2018-09-18T09:30:37.135Z,3.30
2018-09-18T09:33:04.852Z,2.40
2018-09-18T09:35:32.439Z,2.37
2018-09-18T09:38:00.200Z,2.40
2018-09-18T09:40:29.128Z,2.70
2018-09-18T09:42:57.333Z,2.47
2018-09-18T09:45:24.925Z,2.60
2018-09-18T09:47:52.535Z,2.40
2018-09-18T09:50:20.632Z,2.60
2018-09-18T09:52:48.229Z,2.35
2018-09-18T09:55:15.856Z,2.70
2018-09-18T09:57:43.350Z,2.42
2018-09-18T10:00:16.287Z,2.70
2018-09-18T10:02:48.737Z,2.55
2018-09-18T10:05:17.720Z,2.50
2018-09-18T10:07:45.756Z,2.60
2018-09-18T10:10:13.445Z,2.92
2018-09-18T10:12:41.229Z,2.60
2018-09-18T10:15:10.016Z,2.20
2018-09-18T10:17:37.948Z,2.30
2018-09-18T10:20:05.788Z,2.42
2018-09-18T10:22:33.257Z,2.60
2018-09-18T10:25:01.517Z,2.77
2018-09-18T10:27:29.152Z,2.80
2018-09-18T10:29:56.911Z,2.70
2018-09-18T10:32:24.412Z,2.67
2018-09-18T10:34:51.936Z,2.70
2018-09-18T10:37:19.452Z,2.50
2018-09-18T10:39:47.225Z,2.70
2018-09-18T10:42:15.429Z,2.40
2018-09-18T10:44:44.705Z,2.47
2018-09-18T10:47:25.826Z,2.40
2018-09-18T10:49:53.482Z,2.30
2018-09-18T10:52:20.977Z,2.30
2018-09-18T10:54:48.463Z,2.47
2018-09-18T10:57:16.012Z,2.30
2018-09-18T10:59:43.525Z,2.60
2018-09-18T11:02:11.126Z,2.33
2018-09-18T11:04:38.726Z,2.40
2018-09-18T11:07:06.321Z,2.20
2018-09-18T11:09:33.838Z,2.30
2018-09-18T11:12:01.326Z,2.50
2018-09-18T11:14:28.848Z,2.50
2018-09-18T11:16:56.444Z,2.50
2018-09-18T11:19:23.989Z,2.40
2018-09-18T11:21:51.712Z,2.40
2018-09-18T11:24:19.265Z,2.22
2018-09-18T11:26:46.869Z,2.30
2018-09-18T11:29:14.386Z,2.60
2018-09-18T11:31:42.079Z,2.20
2018-09-18T11:34:09.604Z,2.20
2018-09-18T11:36:37.256Z,2.42
2018-09-18T11:39:06.160Z,2.20
2018-09-18T11:41:43.039Z,2.30
2018-09-18T11:44:10.727Z,2.17
2018-09-18T11:46:38.399Z,1.80
2018-09-18T11:49:05.960Z,2.22
2018-09-18T11:51:34.016Z,1.90
2018-09-18T11:54:01.980Z,2.10
2018-09-18T11:56:29.589Z,1.90
2018-09-18T11:58:57.548Z,2.20
2018-09-18T12:01:25.022Z,1.92
2018-09-18T12:03:52.861Z,2.00
2018-09-18T12:06:20.328Z,2.00
2018-09-18T12:08:47.915Z,2.20
2018-09-18T12:11:15.403Z,2.00
2018-09-18T12:13:42.920Z,1.80
2018-09-18T12:16:10.495Z,2.17
2018-09-18T12:18:38.026Z,2.10
2018-09-18T12:21:06.453Z,2.10
2018-09-18T12:23:37.567Z,2.30
2018-09-18T12:26:05.225Z,2.00
2018-09-18T12:28:33.076Z,1.80
2018-09-18T12:31:00.512Z,1.90
2018-09-18T12:33:28.484Z,2.20
2018-09-18T12:35:55.951Z,1.80
2018-09-18T12:38:23.433Z,1.90
2018-09-18T12:40:50.976Z,1.80
2018-09-18T12:43:18.719Z,2.00
2018-09-18T12:45:46.288Z,1.90
2018-09-18T12:48:13.920Z,1.90
2018-09-18T12:50:41.563Z,1.90
2018-09-18T12:53:09.117Z,1.80
2018-09-18T12:55:36.592Z,1.92
2018-09-18T12:58:04.318Z,1.80
2018-09-18T13:00:31.905Z,1.82
2018-09-18T13:03:00.125Z,2.00
2018-09-18T13:05:28.016Z,1.90
2018-09-18T13:07:55.499Z,20.70
2018-09-18T13:10:22.996Z,16.20
2018-09-18T13:12:51.474Z,2.50
2018-09-18T13:15:18.986Z,2.13
2018-09-18T13:17:46.772Z,2.30
2018-09-18T13:20:14.557Z,2.20
2018-09-18T13:22:43.670Z,2.20
2018-09-18T13:25:11.337Z,2.58
2018-09-18T13:27:39.133Z,2.60
2018-09-18T13:30:06.993Z,2.10
2018-09-18T13:32:34.977Z,2.37
2018-09-18T13:35:03.074Z,2.50
2018-09-18T13:37:30.771Z,2.10
2018-09-18T13:39:58.372Z,2.10
2018-09-18T13:42:25.828Z,2.17
2018-09-18T13:44:53.927Z,2.27
2018-09-18T13:47:21.761Z,2.30
2018-09-18T13:49:49.337Z,2.40
2018-09-18T13:52:17.235Z,2.30
2018-09-18T13:54:45.863Z,2.20
2018-09-18T13:57:13.826Z,2.35
2018-09-18T13:59:41.513Z,2.37
2018-09-18T14:02:10.192Z,2.60
2018-09-18T14:04:37.993Z,2.40
2018-09-18T14:07:05.671Z,2.30
2018-09-18T14:09:33.246Z,2.52
2018-09-18T14:12:01.176Z,2.10
2018-09-18T14:14:28.841Z,2.15
2018-09-18T14:16:56.550Z,2.20
2018-09-18T14:19:24.341Z,2.10
2018-09-18T14:21:52.259Z,2.40
2018-09-18T14:24:20.268Z,2.40
2018-09-18T14:26:47.915Z,2.50
2018-09-18T14:29:15.896Z,2.20
2018-09-18T14:31:43.532Z,2.50
2018-09-18T14:34:11.389Z,2.50
2018-09-18T14:36:38.983Z,2.50
2018-09-18T14:39:07.728Z,2.30
2018-09-18T14:41:35.708Z,2.30
2018-09-18T14:44:03.521Z,2.40
2018-09-18T14:46:31.249Z,2.30
2018-09-18T14:48:58.759Z,2.40
2018-09-18T14:51:26.325Z,2.30
2018-09-18T14:53:54.069Z,2.40
2018-09-18T14:56:21.757Z,2.20
2018-09-18T14:58:49.636Z,2.30
2018-09-18T15:01:17.422Z,2.10
2018-09-18T15:03:45.168Z,2.30
2018-09-18T15:07:40.565Z,2.35
2018-09-18T15:10:08.470Z,2.40
2018-09-18T15:12:36.532Z,2.15
2018-09-18T15:15:04.061Z,2.17
2018-09-18T15:17:31.546Z,2.10
2018-09-18T15:19:59.110Z,2.10
2018-09-18T15:22:26.600Z,2.10
2018-09-18T15:24:54.456Z,2.30
2018-09-18T15:27:22.034Z,2.50
2018-09-18T15:29:49.500Z,2.30
2018-09-18T15:32:17.260Z,2.40
2018-09-18T15:34:44.797Z,2.55
2018-09-18T15:37:12.329Z,2.40
2018-09-18T15:39:39.853Z,2.57
2018-09-18T15:42:07.361Z,2.40
2018-09-18T15:44:35.131Z,2.27
2018-09-18T15:47:02.576Z,2.50
2018-09-18T15:49:30.116Z,2.70
2018-09-18T15:51:57.949Z,2.22
2018-09-18T15:54:26.108Z,2.70
2018-09-18T15:56:53.925Z,2.50
2018-09-18T15:59:21.924Z,2.55
2018-09-18T16:01:49.912Z,3.70
2018-09-18T16:04:17.606Z,3.40
2018-09-18T16:06:45.941Z,3.08
2018-09-18T16:09:13.671Z,3.20
2018-09-18T16:11:42.208Z,3.00
2018-09-18T16:14:10.111Z,3.10
2018-09-18T16:16:37.894Z,2.40
2018-09-18T16:19:05.641Z,2.37
2018-09-18T16:21:33.309Z,2.30
2018-09-18T16:24:01.234Z,2.60
2018-09-18T16:26:28.936Z,3.40
2018-09-18T16:28:57.227Z,2.20
2018-09-18T16:31:24.929Z,2.20
2018-09-18T16:33:52.951Z,2.90
2018-09-18T16:36:20.658Z,2.40
2018-09-18T16:38:48.168Z,2.70
2018-09-18T16:41:15.699Z,2.47
2018-09-18T16:43:43.792Z,2.55
2018-09-18T16:46:12.120Z,2.50
2018-09-18T16:48:39.705Z,2.40
2018-09-18T16:51:07.483Z,2.10
2018-09-18T16:53:35.104Z,2.30
2018-09-18T16:56:02.753Z,2.20
2018-09-18T16:58:30.906Z,2.40
2018-09-18T17:00:58.673Z,2.23
2018-09-18T17:03:26.929Z,2.35
2018-09-18T17:05:54.477Z,2.40
2018-09-18T17:08:22.125Z,2.20
2018-09-18T17:10:49.725Z,2.25
2018-09-18T17:13:17.437Z,2.00
2018-09-18T17:15:44.923Z,2.50
2018-09-18T17:18:12.852Z,2.50
2018-09-18T17:20:40.700Z,2.10
2018-09-18T17:23:08.705Z,2.60
2018-09-18T17:25:36.200Z,2.40
2018-09-18T17:28:03.724Z,2.20
2018-09-18T17:30:31.281Z,2.60
2018-09-18T17:32:58.833Z,2.70
2018-09-18T17:35:26.335Z,2.50
2018-09-18T17:37:53.860Z,2.27
2018-09-18T17:40:21.346Z,2.40
2018-09-18T17:42:48.807Z,2.42
2018-09-18T17:45:16.783Z,3.30
2018-09-18T17:47:45.018Z,3.00
2018-09-18T17:50:12.531Z,3.00
2018-09-18T17:52:40.403Z,2.65
2018-09-18T17:55:08.259Z,2.70
2018-09-18T17:57:36.321Z,2.30
2018-09-18T18:00:03.859Z,2.60
2018-09-18T18:02:31.388Z,2.70
2018-09-18T18:04:58.941Z,2.80
2018-09-18T18:07:26.485Z,2.40
2018-09-18T18:09:53.974Z,2.50
2018-09-18T18:12:21.960Z,2.50
2018-09-18T18:14:49.751Z,2.50
2018-09-18T18:17:17.281Z,2.47
2018-09-18T18:19:44.834Z,2.70
2018-09-18T18:22:12.352Z,2.70
2018-09-18T18:24:39.972Z,2.42
2018-09-18T18:27:07.634Z,2.50
2018-09-18T18:29:35.202Z,2.60
2018-09-18T18:32:02.908Z,2.60
2018-09-18T18:34:30.435Z,2.50
2018-09-18T18:36:57.873Z,2.50
2018-09-18T18:39:25.607Z,2.40
2018-09-18T18:41:53.545Z,3.00
2018-09-18T18:44:21.349Z,2.80
2018-09-18T18:46:48.809Z,2.70
2018-09-18T18:49:17.076Z,2.70
2018-09-18T18:51:45.141Z,2.73
2018-09-18T18:54:13.468Z,2.90
2018-09-18T18:56:42.594Z,2.70
2018-09-18T18:59:10.396Z,2.83
2018-09-18T19:01:37.972Z,2.90
2018-09-18T19:04:05.616Z,2.70
2018-09-18T19:06:33.726Z,2.60
2018-09-18T19:09:01.905Z,2.67
2018-09-18T19:11:29.569Z,2.80
2018-09-18T19:13:57.292Z,3.00
2018-09-18T19:16:24.743Z,2.70
2018-09-18T19:18:52.464Z,2.70
2018-09-18T19:21:20.939Z,2.90
2018-09-18T19:23:48.381Z,2.87
2018-09-18T19:26:16.263Z,2.83
2018-09-18T19:28:43.791Z,3.00
2018-09-18T19:31:11.509Z,2.90
2018-09-18T19:33:39.208Z,2.70
2018-09-18T19:36:06.786Z,2.80
2018-09-18T19:38:34.611Z,2.80
2018-09-18T19:41:02.295Z,3.00
2018-09-18T19:43:30.577Z,3.35
2018-09-18T19:45:58.185Z,3.20
2018-09-18T19:48:25.904Z,3.22
2018-09-18T19:50:53.480Z,2.90
2018-09-18T19:53:21.571Z,3.72
2018-09-18T19:55:49.796Z,3.30
2018-09-18T19:58:17.279Z,3.40
2018-09-18T20:00:44.940Z,3.10
2018-09-18T20:03:12.670Z,3.10
2018-09-18T20:05:40.374Z,3.40
2018-09-18T20:08:07.877Z,4.70
2018-09-18T20:10:36.249Z,3.50
2018-09-18T20:13:03.861Z,4.00
2018-09-18T20:15:31.586Z,3.90
2018-09-18T20:17:59.186Z,4.10
2018-09-18T20:20:26.753Z,3.60
2018-09-18T20:22:54.343Z,5.33
2018-09-18T20:25:21.952Z,4.70
2018-09-18T20:27:49.794Z,5.87
2018-09-18T20:30:18.470Z,10.63
2018-09-18T20:32:47.331Z,12.37
2018-09-18T20:35:15.978Z,8.35
2018-09-18T20:37:44.784Z,6.87
2018-09-18T20:40:12.597Z,7.80
2018-09-18T20:42:40.618Z,6.87
2018-09-18T20:45:08.480Z,6.40
2018-09-18T20:47:35.932Z,5.60
2018-09-18T20:50:03.532Z,6.35
2018-09-18T20:52:31.239Z,6.15
2018-09-18T20:54:58.766Z,5.40
2018-09-18T20:57:26.319Z,6.30
2018-09-18T20:59:54.392Z,5.05
2018-09-18T21:02:21.917Z,5.87
2018-09-18T21:04:49.415Z,6.05
2018-09-18T21:07:17.126Z,5.60
2018-09-18T21:09:45.005Z,5.67
2018-09-18T21:12:12.643Z,5.00
2018-09-18T21:14:40.642Z,5.50
2018-09-18T21:17:08.337Z,5.00
2018-09-18T21:19:36.060Z,5.45
2018-09-18T21:22:03.694Z,5.62
2018-09-18T21:24:31.608Z,5.50
2018-09-18T21:26:59.088Z,5.53
2018-09-18T21:29:27.247Z,5.15
2018-09-18T21:31:55.017Z,5.40
2018-09-18T21:34:22.792Z,5.20
2018-09-18T21:36:50.962Z,6.00
2018-09-18T21:39:18.589Z,5.55
2018-09-18T21:41:46.130Z,5.40
2018-09-18T21:44:14.014Z,5.40
2018-09-18T21:46:41.796Z,5.65
2018-09-18T21:49:09.253Z,5.90
2018-09-18T21:51:36.940Z,5.78
2018-09-18T21:54:04.463Z,5.53
2018-09-18T21:56:32.847Z,6.08
2018-09-18T21:59:00.433Z,5.50
2018-09-18T22:01:28.099Z,6.08
2018-09-18T22:03:56.148Z,5.50
2018-09-18T22:06:23.689Z,6.00
2018-09-18T22:08:51.361Z,6.28
2018-09-18T22:11:19.272Z,4.90
2018-09-18T22:13:46.882Z,6.05
2018-09-18T22:16:14.566Z,6.00
2018-09-18T22:18:42.007Z,5.35
2018-09-18T22:21:09.649Z,6.20
2018-09-18T22:23:37.188Z,5.60
2018-09-18T22:26:05.120Z,6.15
2018-09-18T22:28:32.733Z,6.00
2018-09-18T22:31:00.206Z,5.60
2018-09-18T22:33:27.893Z,5.78
2018-09-18T22:35:55.520Z,5.50
2018-09-18T22:38:23.400Z,5.75
2018-09-18T22:40:51.214Z,5.62
2018-09-18T22:43:18.690Z,5.30
2018-09-18T22:45:46.145Z,5.40
2018-09-18T22:48:13.787Z,5.80
2018-09-18T22:50:42.788Z,5.20
2018-09-18T22:53:10.515Z,6.90
2018-09-18T22:55:38.602Z,5.87
2018-09-18T22:58:06.981Z,5.50
2018-09-18T23:00:34.450Z,5.47
2018-09-18T23:03:02.025Z,5.70
2018-09-18T23:05:29.821Z,5.42
2018-09-18T23:07:57.495Z,5.55
2018-09-18T23:10:25.184Z,5.92
2018-09-18T23:12:53.030Z,6.10
2018-09-18T23:15:20.718Z,6.20
2018-09-18T23:17:48.376Z,6.00
2018-09-18T23:20:16.297Z,6.40
2018-09-18T23:22:43.756Z,6.05
2018-09-18T23:25:11.592Z,6.70
2018-09-18T23:27:39.124Z,6.70
2018-09-18T23:30:07.041Z,6.35
2018-09-18T23:32:36.017Z,6.80
2018-09-18T23:35:03.494Z,6.78
2018-09-18T23:37:31.195Z,7.20
2018-09-18T23:39:58.833Z,6.60
2018-09-18T23:42:26.463Z,6.40
2018-09-18T23:44:54.192Z,6.67
2018-09-18T23:47:21.897Z,7.08
2018-09-18T23:49:49.716Z,7.00
2018-09-18T23:52:18.307Z,6.53
2018-09-18T23:54:46.568Z,7.10
2018-09-18T23:57:14.623Z,6.70
2018-09-18T23:59:42.775Z,6.70
